Time;durP1;ratioP1;P1;durP2;ratioP2;P2;SDS_P1;SDS_P2;PMS_P1;PMS_P2;Temp;Humidity;BMP_temperature;BMP_pressure;BME280_temperature;BME280_humidity;BME280_pressure;Samples;Min_cycle;Max_cycle;Signal;HPM_P1;HPM_P2
2021/01/03 00:01:08;;;;;;;8.50;7.30;;;2.30;99.90;;;;;;5035933;28;20493;-72
2021/01/03 00:03:33;;;;;;;10.25;7.70;;;2.20;99.90;;;;;;5035714;28;20030;-73
2021/01/03 00:05:59;;;;;;;9.48;7.35;;;2.10;99.90;;;;;;5035255;28;20076;-71
2021/01/03 00:08:25;;;;;;;8.82;7.10;;;2.10;99.90;;;;;;5035374;28;20385;-71
2021/01/03 00:10:50;;;;;;;8.63;7.65;;;2.10;99.90;;;;;;5036111;28;20030;-73
2021/01/03 00:13:17;;;;;;;9.10;6.60;;;2.10;99.90;;;;;;5017885;28;20025;-72
2021/01/03 00:15:42;;;;;;;8.75;7.85;;;2.10;99.90;;;;;;5035696;28;20029;-72
2021/01/03 00:18:08;;;;;;;9.70;7.30;;;2.00;99.90;;;;;;5036069;28;20478;-72
2021/01/03 00:20:34;;;;;;;8.63;7.75;;;2.10;99.90;;;;;;5039213;28;20049;-74
2021/01/03 00:22:59;;;;;;;8.52;7.65;;;2.10;99.90;;;;;;5037878;28;20057;-71
2021/01/03 00:25:26;;;;;;;8.63;7.45;;;2.30;99.90;;;;;;5034788;28;20025;-71
2021/01/03 00:27:53;;;;;;;9.45;7.55;;;2.20;99.90;;;;;;5034452;28;20027;-71
2021/01/03 00:30:22;;;;;;;9.20;8.20;;;2.10;99.90;;;;;;5016237;28;20040;-72
2021/01/03 00:32:48;;;;;;;7.68;6.88;;;2.00;99.90;;;;;;5035033;28;20037;-74
2021/01/03 00:35:21;;;;;;;8.63;7.47;;;2.00;99.90;;;;;;5035613;28;20033;-71
2021/01/03 00:37:47;;;;;;;8.15;7.25;;;2.00;99.90;;;;;;5035763;28;20056;-73
2021/01/03 00:40:16;;;;;;;9.00;7.75;;;2.00;99.90;;;;;;5035268;28;20033;-73
2021/01/03 00:42:42;;;;;;;9.00;7.57;;;2.00;99.90;;;;;;5031377;28;20061;-74
2021/01/03 00:45:09;;;;;;;8.18;7.30;;;2.20;99.90;;;;;;5017734;28;20435;-72
2021/01/03 00:47:36;;;;;;;9.27;6.65;;;2.30;99.90;;;;;;5035119;28;20033;-73
2021/01/03 00:50:04;;;;;;;9.98;7.47;;;2.40;99.90;;;;;;5035206;28;20037;-71
2021/01/03 00:52:30;;;;;;;9.68;7.95;;;2.30;99.90;;;;;;5028767;28;20060;-71
2021/01/03 00:54:55;;;;;;;9.32;7.57;;;2.20;99.90;;;;;;5030043;28;20479;-72
2021/01/03 00:57:21;;;;;;;8.70;6.97;;;2.10;99.90;;;;;;5027737;28;20084;-72
2021/01/03 00:59:47;;;;;;;8.13;7.32;;;2.10;99.90;;;;;;5025034;28;20057;-73
2021/01/03 01:02:12;;;;;;;9.05;7.53;;;2.00;99.90;;;;;;5024869;28;20021;-72
2021/01/03 01:04:38;;;;;;;8.88;7.97;;;2.00;99.90;;;;;;5029285;28;20087;-71
2021/01/03 01:07:03;;;;;;;8.95;7.78;;;2.10;99.90;;;;;;5033352;28;20079;-72
2021/01/03 01:09:29;;;;;;;9.23;8.23;;;2.20;99.90;;;;;;5033205;28;20384;-72
2021/01/03 01:11:54;;;;;;;9.27;7.28;;;2.40;99.90;;;;;;5028039;28;20030;-71
2021/01/03 01:14:20;;;;;;;8.85;7.78;;;2.40;99.90;;;;;;5034037;28;20033;-73
2021/01/03 01:16:46;;;;;;;8.73;6.95;;;2.40;99.90;;;;;;5033607;28;20120;-71
2021/01/03 01:19:11;;;;;;;9.75;7.13;;;2.40;99.90;;;;;;5034485;28;20078;-72
2021/01/03 01:21:37;;;;;;;9.05;6.80;;;2.50;99.90;;;;;;5032924;28;20120;-71
2021/01/03 01:24:03;;;;;;;8.70;7.10;;;2.50;99.90;;;;;;5029856;28;20029;-71
2021/01/03 01:26:28;;;;;;;9.43;8.40;;;2.50;99.90;;;;;;5029590;28;20052;-75
2021/01/03 01:28:54;;;;;;;7.70;6.90;;;2.30;99.90;;;;;;5029426;28;20091;-72
2021/01/03 01:31:19;;;;;;;10.77;9.35;;;2.20;99.90;;;;;;5033848;28;20038;-71
2021/01/03 01:33:45;;;;;;;9.23;8.27;;;2.10;99.90;;;;;;5025716;28;20430;-71
2021/01/03 01:36:11;;;;;;;8.52;7.43;;;2.10;99.90;;;;;;5029524;28;20029;-71
2021/01/03 01:38:36;;;;;;;8.45;7.60;;;2.10;99.90;;;;;;5021810;28;20021;-73
2021/01/03 01:41:02;;;;;;;10.30;8.48;;;2.00;99.90;;;;;;5029905;28;20034;-73
2021/01/03 01:43:28;;;;;;;9.75;7.75;;;2.10;99.90;;;;;;5031811;28;20109;-72
2021/01/03 01:45:54;;;;;;;9.55;7.80;;;2.20;99.90;;;;;;5033954;28;20041;-72
2021/01/03 01:48:36;;;;;;;9.75;8.55;;;2.00;99.90;;;;;;5024886;28;20032;-70
2021/01/03 01:51:13;;;;;;;10.25;8.68;;;2.10;99.90;;;;;;5030524;28;20030;-72
2021/01/03 01:53:56;;;;;;;8.85;7.75;;;1.90;99.90;;;;;;5034876;28;20033;-72
2021/01/03 01:56:21;;;;;;;11.52;8.75;;;1.90;99.90;;;;;;5041666;28;20033;-70
2021/01/03 01:59:00;;;;;;;9.23;7.18;;;1.90;99.90;;;;;;5031187;28;20029;-71
2021/01/03 02:01:43;;;;;;;9.38;7.75;;;1.90;99.90;;;;;;5004347;28;20033;-71
2021/01/03 02:04:31;;;;;;;10.07;8.80;;;1.90;99.90;;;;;;5028471;28;20160;-73
2021/01/03 02:07:08;;;;;;;9.45;8.45;;;1.90;99.90;;;;;;5031676;28;20144;-71
2021/01/03 02:10:01;;;;;;;10.02;8.27;;;1.80;99.90;;;;;;5025869;28;20025;-69
2021/01/03 02:12:39;;;;;;;11.18;9.13;;;1.80;1.00;;;;;;5010707;28;20025;-72
2021/01/03 02:15:26;;;;;;;12.60;9.40;;;1.80;1.00;;;;;;5029773;28;20025;-72
2021/01/03 02:17:53;;;;;;;11.68;10.48;;;1.80;1.00;;;;;;5024529;28;20021;-71
2021/01/03 02:20:19;;;;;;;10.55;8.52;;;1.70;1.00;;;;;;5030167;28;20032;-73
2021/01/03 02:22:49;;;;;;;12.73;10.00;;;1.70;1.00;;;;;;5022215;28;20397;-69
2021/01/03 02:25:17;;;;;;;13.57;9.07;;;1.70;1.00;;;;;;5027952;28;20025;-70
2021/01/03 02:28:00;;;;;;;12.27;9.45;;;1.60;1.00;;;;;;5028184;28;20033;-71
2021/01/03 02:30:27;;;;;;;11.65;10.50;;;1.60;1.00;;;;;;5018194;28;20029;-70
2021/01/03 02:33:08;;;;;;;10.82;9.73;;;1.60;1.00;;;;;;5021448;28;20057;-71
2021/01/03 02:35:38;;;;;;;10.60;9.50;;;1.70;1.00;;;;;;5025135;28;20018;-70
2021/01/03 02:38:05;;;;;;;11.05;9.90;;;2.00;1.00;;;;;;5028608;28;20029;-73
2021/01/03 02:40:31;;;;;;;11.30;9.85;;;2.20;1.00;;;;;;5015571;28;20404;-71
2021/01/03 02:42:57;;;;;;;10.20;9.10;;;2.00;1.00;;;;;;5030773;28;20034;-72
2021/01/03 02:45:26;;;;;;;14.18;11.13;;;1.70;1.00;;;;;;5028976;28;20034;-71
2021/01/03 02:47:52;;;;;;;13.90;11.13;;;1.70;37.60;;;;;;5033797;28;20104;-70
2021/01/03 02:50:24;;;;;;;12.75;10.68;;;1.50;69.80;;;;;;5030640;28;20034;-70
2021/01/03 02:52:51;;;;;;;13.38;11.50;;;1.40;99.90;;;;;;5035981;28;20025;-72
2021/01/03 02:55:18;;;;;;;12.85;11.55;;;1.30;99.90;;;;;;5037219;28;20037;-70
2021/01/03 02:57:44;;;;;;;13.80;12.15;;;1.40;99.90;;;;;;5032254;28;20386;-70
2021/01/03 03:00:19;;;;;;;14.88;12.93;;;1.30;99.90;;;;;;5023139;28;20029;-69
2021/01/03 03:02:45;;;;;;;16.92;12.75;;;1.20;99.90;;;;;;5021023;28;20471;-71
2021/01/03 03:05:11;;;;;;;15.32;13.02;;;1.10;99.90;;;;;;5029268;28;20026;-71
2021/01/03 03:07:37;;;;;;;15.70;13.10;;;1.10;99.90;;;;;;5014466;28;20021;-70
2021/01/03 03:10:03;;;;;;;17.17;13.82;;;1.10;99.90;;;;;;5038036;28;20083;-71
2021/01/03 03:12:29;;;;;;;17.30;14.25;;;1.10;99.90;;;;;;5037430;28;20672;-72
2021/01/03 03:14:54;;;;;;;15.75;13.27;;;1.00;99.90;;;;;;5031878;28;20051;-71
2021/01/03 03:17:20;;;;;;;21.67;15.00;;;1.00;99.90;;;;;;5013055;28;20037;-70
2021/01/03 03:19:46;;;;;;;18.60;14.73;;;1.00;99.90;;;;;;5035715;28;20018;-69
2021/01/03 03:22:11;;;;;;;19.67;14.40;;;1.00;99.90;;;;;;5031772;28;20025;-70
2021/01/03 03:24:37;;;;;;;19.30;15.43;;;1.10;99.90;;;;;;5032855;28;20504;-71
2021/01/03 03:27:03;;;;;;;16.63;12.98;;;1.00;99.90;;;;;;5022159;28;20093;-71
2021/01/03 03:29:29;;;;;;;20.10;15.13;;;1.00;99.90;;;;;;5037415;28;20029;-71
2021/01/03 03:31:56;;;;;;;19.50;15.13;;;0.90;99.90;;;;;;5039490;28;20056;-71
2021/01/03 03:34:22;;;;;;;16.55;14.13;;;1.00;99.90;;;;;;5045119;28;20032;-70
2021/01/03 03:36:52;;;;;;;16.35;14.57;;;0.90;99.90;;;;;;5043305;28;20030;-70
2021/01/03 03:39:18;;;;;;;20.38;16.23;;;0.90;99.90;;;;;;5043949;28;20499;-70
2021/01/03 03:41:43;;;;;;;17.02;15.20;;;1.00;99.90;;;;;;5023895;28;20033;-71
2021/01/03 03:44:09;;;;;;;16.83;14.00;;;1.00;99.90;;;;;;5040733;28;20113;-70
2021/01/03 03:46:34;;;;;;;18.58;15.88;;;1.00;99.90;;;;;;5023202;28;20041;-71
2021/01/03 03:49:00;;;;;;;19.00;14.98;;;1.00;99.90;;;;;;5041421;28;20024;-71
2021/01/03 03:51:26;;;;;;;18.20;15.82;;;1.00;99.90;;;;;;5041520;28;20540;-69
2021/01/03 03:53:51;;;;;;;18.98;14.20;;;1.00;99.90;;;;;;5036348;28;20026;-70
2021/01/03 03:56:17;;;;;;;16.90;14.30;;;1.00;99.90;;;;;;5038749;28;20469;-71
2021/01/03 03:58:44;;;;;;;18.42;15.43;;;1.10;99.90;;;;;;5022243;28;20121;-69
2021/01/03 04:01:10;;;;;;;17.33;14.48;;;1.00;99.90;;;;;;5032230;28;20485;-71
2021/01/03 04:03:36;;;;;;;18.77;14.95;;;0.90;99.90;;;;;;5025888;28;20037;-70
2021/01/03 04:06:02;;;;;;;18.30;14.40;;;0.90;99.90;;;;;;5042763;28;20022;-70
2021/01/03 04:08:28;;;;;;;16.23;14.48;;;0.90;99.90;;;;;;5041492;28;20758;-69
2021/01/03 04:10:54;;;;;;;17.80;14.05;;;0.90;99.90;;;;;;5041678;28;20029;-70
2021/01/03 04:13:20;;;;;;;17.40;14.45;;;0.90;99.90;;;;;;5041758;28;20169;-70
2021/01/03 04:15:46;;;;;;;19.00;15.57;;;1.00;99.90;;;;;;5042648;28;20029;-69
2021/01/03 04:18:11;;;;;;;20.35;15.63;;;0.90;99.90;;;;;;5046279;28;20162;-72
2021/01/03 04:20:38;;;;;;;20.92;15.55;;;1.00;99.90;;;;;;5038474;28;20044;-72
2021/01/03 04:23:10;;;;;;;19.70;15.77;;;0.90;99.90;;;;;;5044601;28;20029;-72
2021/01/03 04:25:37;;;;;;;18.23;15.25;;;1.00;99.90;;;;;;5041125;28;20096;-72
2021/01/03 04:28:03;;;;;;;19.30;15.32;;;1.00;99.90;;;;;;5039344;28;20030;-72
2021/01/03 04:30:29;;;;;;;18.80;14.85;;;0.90;99.90;;;;;;5038270;28;20021;-71
2021/01/03 04:32:55;;;;;;;17.67;14.13;;;0.90;99.90;;;;;;5036111;28;20083;-72
2021/01/03 04:35:22;;;;;;;21.15;16.73;;;0.90;99.90;;;;;;5036593;28;20087;-72
2021/01/03 04:37:51;;;;;;;21.05;15.95;;;0.80;99.90;;;;;;5035561;28;20112;-71
2021/01/03 04:40:21;;;;;;;22.27;16.40;;;0.90;99.90;;;;;;5029827;28;20034;-71
2021/01/03 04:42:54;;;;;;;24.55;17.38;;;0.90;99.90;;;;;;5035367;28;20033;-73
2021/01/03 04:45:37;;;;;;;21.63;16.35;;;0.90;99.90;;;;;;5017447;28;20029;-73
2021/01/03 04:48:07;;;;;;;19.52;15.07;;;0.90;99.90;;;;;;5027282;28;20029;-73
2021/01/03 04:50:50;;;;;;;21.40;16.75;;;0.80;99.90;;;;;;5035230;28;20030;-72
2021/01/03 04:53:38;;;;;;;19.35;14.82;;;0.80;99.90;;;;;;5032631;28;20112;-73
2021/01/03 04:56:17;;;;;;;21.17;16.80;;;0.90;99.90;;;;;;5045064;28;20025;-72
2021/01/03 04:58:57;;;;;;;21.92;17.40;;;0.80;99.90;;;;;;5034368;28;20385;-73
2021/01/03 05:01:38;;;;;;;22.42;16.45;;;0.80;99.90;;;;;;5015067;28;20029;-71
2021/01/03 05:04:06;;;;;;;23.58;17.55;;;0.90;99.90;;;;;;4997115;28;20060;-73
2021/01/03 05:06:34;;;;;;;21.30;18.17;;;0.90;99.90;;;;;;5015350;28;20068;-72
2021/01/03 05:09:03;;;;;;;20.33;16.65;;;0.80;99.90;;;;;;5014552;28;20473;-73
2021/01/03 05:11:47;;;;;;;21.67;15.70;;;0.90;99.90;;;;;;5020005;28;20048;-73
2021/01/03 05:14:43;;;;;;;20.73;15.48;;;0.90;99.90;;;;;;5034257;28;20028;-73
2021/01/03 05:17:08;;;;;;;18.45;15.05;;;1.00;99.90;;;;;;5026078;28;20057;-72
2021/01/03 05:19:34;;;;;;;16.73;14.75;;;0.90;99.90;;;;;;5034304;28;20440;-73
2021/01/03 05:21:59;;;;;;;19.40;17.00;;;1.00;99.90;;;;;;5033522;28;20509;-73
2021/01/03 05:24:27;;;;;;;20.13;15.73;;;1.00;99.90;;;;;;5033883;28;20033;-72
2021/01/03 05:26:54;;;;;;;19.10;15.30;;;1.10;99.90;;;;;;5033533;28;20025;-72
2021/01/03 05:29:26;;;;;;;17.85;14.82;;;1.00;99.90;;;;;;5033252;28;20473;-73
2021/01/03 05:32:03;;;;;;;20.15;16.10;;;1.00;99.90;;;;;;5033706;28;20032;-72
2021/01/03 05:34:38;;;;;;;19.25;16.13;;;0.90;99.90;;;;;;5033539;28;20030;-73
2021/01/03 05:37:09;;;;;;;21.58;16.55;;;0.90;99.90;;;;;;5033112;28;20032;-73
2021/01/03 05:39:36;;;;;;;18.73;16.02;;;0.90;99.90;;;;;;5015019;28;20029;-72
2021/01/03 05:42:19;;;;;;;21.65;16.88;;;1.00;99.90;;;;;;5032621;28;20025;-73
2021/01/03 05:44:59;;;;;;;19.83;14.40;;;0.90;99.90;;;;;;5032740;28;20052;-72
2021/01/03 05:47:36;;;;;;;19.77;16.25;;;0.90;99.90;;;;;;5036774;28;20466;-72
2021/01/03 05:50:29;;;;;;;24.10;16.98;;;0.90;99.90;;;;;;5029036;28;20025;-72
2021/01/03 05:53:00;;;;;;;21.75;16.40;;;0.90;99.90;;;;;;5013139;28;20026;-72
2021/01/03 05:55:28;;;;;;;17.20;14.90;;;0.90;99.90;;;;;;5009772;28;20033;-72
2021/01/03 05:58:11;;;;;;;19.90;15.38;;;0.90;99.90;;;;;;5031824;28;20036;-71
2021/01/03 06:00:39;;;;;;;18.80;14.98;;;0.90;99.90;;;;;;5015086;28;20045;-72
2021/01/03 06:03:18;;;;;;;19.63;15.70;;;0.90;99.90;;;;;;5032912;28;20022;-72
2021/01/03 06:05:46;;;;;;;19.88;16.42;;;0.90;99.90;;;;;;5015197;28;20041;-74
2021/01/03 06:08:24;;;;;;;18.42;15.45;;;1.00;99.90;;;;;;5036520;28;20030;-72
2021/01/03 06:10:50;;;;;;;17.38;14.63;;;0.90;99.90;;;;;;5032548;28;20048;-72
2021/01/03 06:13:18;;;;;;;20.27;16.33;;;0.90;99.90;;;;;;5032759;28;20481;-73
2021/01/03 06:15:57;;;;;;;21.02;15.27;;;0.90;99.90;;;;;;5015812;28;20501;-72
2021/01/03 06:18:35;;;;;;;18.50;15.85;;;1.00;99.90;;;;;;5031731;28;20037;-71
2021/01/03 06:21:00;;;;;;;18.45;15.38;;;0.90;99.90;;;;;;5014873;28;20091;-73
2021/01/03 06:23:35;;;;;;;21.13;15.88;;;0.90;99.90;;;;;;5032562;28;20041;-72
2021/01/03 06:26:13;;;;;;;20.58;15.68;;;0.90;99.90;;;;;;5032671;28;20017;-72
2021/01/03 06:28:48;;;;;;;20.85;16.05;;;0.90;99.90;;;;;;5013740;28;20022;-72
2021/01/03 06:31:29;;;;;;;21.55;15.90;;;0.90;99.90;;;;;;5014424;28;20559;-70
2021/01/03 06:34:00;;;;;;;17.92;14.77;;;0.90;99.90;;;;;;5030795;28;20061;-72
2021/01/03 06:36:45;;;;;;;;;;;1.20;99.90;;;;;;5014477;28;20033;-72
2021/01/03 06:39:32;;;;;;;18.80;15.40;;;1.40;99.90;;;;;;5031295;28;20430;-72
2021/01/03 06:42:03;;;;;;;20.30;15.10;;;1.30;99.90;;;;;;5047539;28;20021;-73
2021/01/03 06:45:06;;;;;;;20.60;15.43;;;1.00;99.90;;;;;;5056311;28;20048;-72
2021/01/03 06:48:10;;;;;;;20.35;15.80;;;1.00;99.90;;;;;;5020054;28;20086;-73
2021/01/03 06:50:49;;;;;;;19.02;16.13;;;0.90;99.90;;;;;;5022786;28;20032;-73
2021/01/03 06:53:29;;;;;;;17.63;14.82;;;1.00;99.90;;;;;;5037027;28;20397;-73
2021/01/03 06:56:26;;;;;;;17.85;14.55;;;1.00;99.90;;;;;;5011469;28;20397;-72
2021/01/03 06:59:17;;;;;;;18.02;13.95;;;1.00;99.90;;;;;;5033687;28;20033;-72
2021/01/03 07:01:42;;;;;;;18.83;14.60;;;0.90;99.90;;;;;;5034432;28;20060;-73
2021/01/03 07:04:13;;;;;;;20.02;15.57;;;1.00;99.90;;;;;;5033576;28;20042;-73
2021/01/03 07:06:43;;;;;;;19.35;15.18;;;1.10;99.90;;;;;;5033275;28;20021;-73
2021/01/03 07:09:11;;;;;;;18.13;14.75;;;1.20;99.90;;;;;;5032797;28;20026;-72
2021/01/03 07:11:45;;;;;;;18.75;14.93;;;1.20;99.90;;;;;;5032706;28;20049;-72
2021/01/03 07:14:23;;;;;;;17.63;13.50;;;1.20;99.90;;;;;;5014410;28;20124;-72
2021/01/03 07:17:01;;;;;;;16.67;13.63;;;1.10;99.90;;;;;;5032258;28;20059;-73
2021/01/03 07:19:33;;;;;;;17.08;15.10;;;1.20;99.90;;;;;;5033370;28;20029;-73
2021/01/03 07:22:09;;;;;;;18.70;14.80;;;1.30;99.90;;;;;;5033501;28;20077;-74
2021/01/03 07:24:44;;;;;;;18.98;14.55;;;1.30;99.90;;;;;;5034014;28;20370;-72
2021/01/03 07:27:22;;;;;;;16.13;13.75;;;1.40;99.90;;;;;;5034397;28;20029;-73
2021/01/03 07:29:56;;;;;;;18.85;14.77;;;1.40;99.90;;;;;;5022051;28;20025;-72
2021/01/03 07:32:37;;;;;;;16.42;13.63;;;1.30;99.90;;;;;;5016211;28;20060;-72
2021/01/03 07:35:27;;;;;;;18.20;15.20;;;1.30;99.90;;;;;;5033102;28;20028;-73
2021/01/03 07:38:24;;;;;;;18.52;14.80;;;1.30;99.90;;;;;;5018347;28;20393;-72
2021/01/03 07:41:24;;;;;;;16.63;13.63;;;1.30;99.90;;;;;;5036014;28;20051;-73
2021/01/03 07:43:57;;;;;;;17.05;14.65;;;1.20;99.90;;;;;;5035932;28;20036;-73
2021/01/03 07:47:07;;;;;;;18.20;15.20;;;1.20;99.90;;;;;;5017745;28;20049;-72
2021/01/03 07:49:45;;;;;;;16.30;13.90;;;1.20;99.90;;;;;;5033660;28;20519;-71
2021/01/03 07:52:17;;;;;;;17.05;13.77;;;1.30;99.90;;;;;;5058522;28;20427;-73
2021/01/03 07:54:49;;;;;;;16.98;14.40;;;1.30;99.90;;;;;;5032054;28;20398;-72
2021/01/03 07:57:16;;;;;;;19.13;15.52;;;1.30;99.90;;;;;;5033268;28;20037;-73
2021/01/03 07:59:41;;;;;;;17.90;15.07;;;1.20;99.90;;;;;;5026380;28;20053;-72
2021/01/03 08:02:08;;;;;;;19.48;15.52;;;1.20;99.90;;;;;;5018760;28;20026;-72
2021/01/03 08:04:33;;;;;;;18.40;14.88;;;1.20;99.90;;;;;;5001470;28;20075;-72
2021/01/03 08:07:08;;;;;;;18.35;15.82;;;1.20;99.90;;;;;;5034828;28;20500;-73
2021/01/03 08:09:33;;;;;;;21.92;15.95;;;1.20;99.90;;;;;;5035512;28;20379;-73
2021/01/03 08:12:20;;;;;;;20.73;16.42;;;1.20;99.90;;;;;;5035708;28;20040;-73
2021/01/03 08:14:47;;;;;;;21.25;17.20;;;1.40;99.90;;;;;;5018361;28;20449;-73
2021/01/03 08:17:21;;;;;;;18.25;14.90;;;1.40;99.90;;;;;;5002826;28;20034;-73
2021/01/03 08:19:48;;;;;;;19.08;15.48;;;1.40;99.90;;;;;;5028532;28;20044;-73
2021/01/03 08:22:23;;;;;;;20.10;15.65;;;1.50;99.90;;;;;;5017316;28;20029;-73
2021/01/03 08:24:54;;;;;;;20.40;15.20;;;1.50;99.90;;;;;;5023187;28;20018;-72
2021/01/03 08:27:24;;;;;;;18.20;14.68;;;1.50;99.90;;;;;;5035123;28;20104;-72
2021/01/03 08:30:03;;;;;;;18.65;15.30;;;1.40;99.90;;;;;;5035188;28;20104;-73
2021/01/03 08:32:31;;;;;;;20.17;15.32;;;1.40;99.90;;;;;;5034661;28;20045;-73
2021/01/03 08:35:00;;;;;;;20.73;16.45;;;1.30;99.90;;;;;;5016926;28;20025;-73
2021/01/03 08:37:34;;;;;;;21.92;15.75;;;1.40;99.90;;;;;;5017208;28;20034;-72
2021/01/03 08:40:11;;;;;;;19.25;16.17;;;1.50;99.90;;;;;;5035384;28;20448;-73
2021/01/03 08:42:42;;;;;;;17.40;14.65;;;1.60;99.90;;;;;;5034123;28;20072;-72
2021/01/03 08:45:15;;;;;;;17.67;14.55;;;1.60;99.90;;;;;;5033975;28;20548;-72
2021/01/03 08:47:41;;;;;;;18.58;15.07;;;1.70;99.90;;;;;;5016126;28;20452;-73
2021/01/03 08:50:09;;;;;;;16.35;13.68;;;1.70;99.90;;;;;;5033209;28;20022;-72
2021/01/03 08:52:36;;;;;;;19.15;14.77;;;1.80;99.90;;;;;;5035229;28;20036;-73
2021/01/03 08:55:18;;;;;;;14.85;12.63;;;1.80;99.90;;;;;;5017274;28;20160;-73
2021/01/03 08:57:52;;;;;;;15.48;12.65;;;1.60;99.90;;;;;;5034046;28;20113;-73
2021/01/03 09:00:22;;;;;;;17.52;14.40;;;1.50;99.90;;;;;;5033762;28;20034;-74
2021/01/03 09:02:48;;;;;;;16.20;13.75;;;1.70;99.90;;;;;;5033980;28;20480;-73
2021/01/03 09:05:18;;;;;;;15.63;12.35;;;1.70;99.90;;;;;;5033448;28;20037;-73
2021/01/03 09:07:45;;;;;;;15.98;14.23;;;1.80;99.90;;;;;;5033786;28;20507;-73
2021/01/03 09:10:20;;;;;;;14.77;13.18;;;1.80;99.90;;;;;;5016308;28;20129;-73
2021/01/03 09:12:47;;;;;;;16.58;14.35;;;1.70;99.90;;;;;;5033950;28;20049;-72
2021/01/03 09:15:24;;;;;;;14.45;12.80;;;1.70;99.90;;;;;;5015949;28;20041;-73
2021/01/03 09:18:16;;;;;;;14.43;12.52;;;1.70;99.90;;;;;;5027437;28;20481;-73
2021/01/03 09:20:45;;;;;;;14.07;11.82;;;1.70;99.90;;;;;;5034037;28;20027;-73
2021/01/03 09:23:19;;;;;;;13.43;11.98;;;1.60;99.90;;;;;;5033802;28;20056;-73
2021/01/03 09:25:54;;;;;;;13.02;11.73;;;1.80;99.90;;;;;;5032121;28;20558;-73
2021/01/03 09:28:24;;;;;;;13.45;11.93;;;1.80;99.90;;;;;;5034102;28;20026;-73
2021/01/03 09:30:50;;;;;;;12.73;11.43;;;1.90;99.90;;;;;;5016604;28;20436;-73
2021/01/03 09:33:26;;;;;;;13.63;12.10;;;1.90;99.90;;;;;;5049205;28;20041;-73
2021/01/03 09:36:27;;;;;;;15.77;13.45;;;2.00;99.90;;;;;;5040984;28;20404;-71
2021/01/03 09:39:25;;;;;;;13.70;12.25;;;2.10;99.90;;;;;;4961643;29;20027;-72
2021/01/03 09:41:56;;;;;;;14.57;12.35;;;2.10;99.90;;;;;;5028987;28;20144;-72
2021/01/03 09:45:02;;;;;;;12.38;10.93;;;2.10;99.90;;;;;;5034408;28;20113;-73
2021/01/03 09:47:40;;;;;;;12.05;10.80;;;2.00;95.00;;;;;;5033641;28;20497;-72
2021/01/03 09:50:26;;;;;;;12.20;10.98;;;2.00;98.10;;;;;;5034522;28;20103;-73
2021/01/03 09:53:00;;;;;;;14.88;12.35;;;1.90;99.90;;;;;;5027806;28;20052;-74
2021/01/03 09:55:29;;;;;;;12.85;11.48;;;1.90;99.90;;;;;;5034063;28;20117;-72
2021/01/03 09:57:54;;;;;;;15.88;13.57;;;2.10;99.90;;;;;;5034664;28;20044;-71
2021/01/03 10:00:44;;;;;;;13.07;11.57;;;2.10;99.90;;;;;;5016369;28;20486;-71
2021/01/03 10:03:21;;;;;;;14.50;12.85;;;2.10;82.10;;;;;;5033773;28;20081;-72
2021/01/03 10:05:47;;;;;;;13.95;11.88;;;2.10;99.90;;;;;;5018521;28;20501;-72
2021/01/03 10:08:20;;;;;;;15.30;13.30;;;2.10;99.90;;;;;;5033540;28;20588;-72
2021/01/03 10:10:58;;;;;;;13.25;11.85;;;2.30;94.90;;;;;;5015547;28;20052;-72
2021/01/03 10:13:27;;;;;;;14.38;12.80;;;2.40;56.70;;;;;;5034338;28;20029;-73
2021/01/03 10:15:53;;;;;;;14.70;12.50;;;2.50;90.90;;;;;;5035070;28;20113;-72
2021/01/03 10:18:38;;;;;;;14.77;12.35;;;2.50;57.60;;;;;;5105579;22;20424;-79
2021/01/03 10:21:30;;;;;;;14.70;12.52;;;2.60;70.00;;;;;;5039422;28;20033;-78
2021/01/03 10:23:59;;;;;;;14.68;13.07;;;2.50;34.50;;;;;;5034624;28;20096;-77
2021/01/03 10:26:24;;;;;;;16.40;13.50;;;2.80;5.80;;;;;;5043039;28;20025;-78
2021/01/03 10:28:51;;;;;;;14.82;12.63;;;2.80;33.30;;;;;;5026193;28;20032;-79
2021/01/03 10:31:17;;;;;;;13.57;12.07;;;2.70;1.60;;;;;;5044320;28;20052;-80
2021/01/03 10:33:43;;;;;;;14.63;13.13;;;2.60;1.50;;;;;;5046257;28;20092;-81
2021/01/03 10:36:14;;;;;;;13.45;11.70;;;2.70;3.20;;;;;;5032745;28;20034;-78
2021/01/03 10:38:39;;;;;;;;;;;2.50;1.00;;;;;;5046420;28;20032;-79
2021/01/03 10:41:05;;;;;;;13.20;11.80;;;2.50;11.10;;;;;;5043483;28;19945;-77
2021/01/03 10:43:30;;;;;;;13.52;12.13;;;2.50;1.00;;;;;;5042806;28;20034;-79
2021/01/03 10:45:57;;;;;;;14.18;11.90;;;2.40;24.30;;;;;;5041178;28;20053;-78
2021/01/03 10:48:22;;;;;;;16.10;12.80;;;2.40;11.80;;;;;;5038293;28;20029;-78
2021/01/03 10:50:48;;;;;;;16.33;13.93;;;2.30;91.20;;;;;;5039369;28;20025;-79
2021/01/03 10:53:15;;;;;;;14.60;12.93;;;2.20;64.00;;;;;;5024918;28;20037;-79
2021/01/03 10:55:40;;;;;;;16.17;12.85;;;2.10;49.90;;;;;;5042279;28;20096;-79
2021/01/03 10:58:06;;;;;;;17.20;12.75;;;2.00;74.70;;;;;;5041391;28;20029;-78
2021/01/03 11:00:31;;;;;;;14.85;13.25;;;2.20;92.40;;;;;;5040882;28;20040;-78
2021/01/03 11:02:57;;;;;;;15.65;13.25;;;2.30;80.50;;;;;;5042748;28;20056;-79
2021/01/03 11:05:22;;;;;;;17.98;14.90;;;2.40;48.30;;;;;;5041804;28;20028;-79
2021/01/03 11:07:48;;;;;;;14.05;12.55;;;2.40;50.60;;;;;;5040965;28;20509;-79
2021/01/03 11:10:14;;;;;;;15.20;12.38;;;2.50;13.70;;;;;;5041935;28;20030;-79
2021/01/03 11:12:39;;;;;;;13.77;12.27;;;2.60;21.40;;;;;;5045798;28;20520;-78
2021/01/03 11:15:08;;;;;;;16.27;13.90;;;2.50;20.20;;;;;;5048775;28;20030;-78
2021/01/03 11:17:34;;;;;;;16.35;14.35;;;2.50;54.40;;;;;;5049353;28;20716;-78
2021/01/03 11:20:00;;;;;;;15.82;13.30;;;2.50;37.00;;;;;;5049128;28;20036;-78
2021/01/03 11:22:25;;;;;;;14.60;12.98;;;2.60;1.00;;;;;;5048777;28;20036;-78
2021/01/03 11:24:51;;;;;;;13.82;12.35;;;2.70;1.00;;;;;;5050702;28;20040;-78
2021/01/03 11:27:19;;;;;;;15.52;12.27;;;2.60;1.00;;;;;;5049726;28;20101;-77
2021/01/03 11:29:45;;;;;;;14.48;12.85;;;2.40;1.00;;;;;;5046132;28;20026;-78
2021/01/03 11:32:14;;;;;;;16.50;14.10;;;2.30;21.80;;;;;;5046969;28;20595;-78
2021/01/03 11:34:41;;;;;;;16.45;14.55;;;2.20;63.00;;;;;;5048733;28;20097;-78
2021/01/03 11:37:11;;;;;;;16.70;14.85;;;2.30;45.10;;;;;;5050872;28;20040;-78
2021/01/03 11:39:37;;;;;;;17.65;14.90;;;2.20;59.70;;;;;;5031250;28;20114;-78
2021/01/03 11:42:12;;;;;;;15.80;13.60;;;2.30;49.70;;;;;;5049793;28;20037;-78
2021/01/03 11:44:39;;;;;;;19.77;14.00;;;2.50;43.90;;;;;;5050598;28;20105;-78
2021/01/03 11:47:11;;;;;;;20.98;15.98;;;2.50;22.10;;;;;;5059013;28;20040;-78
2021/01/03 11:49:37;;;;;;;16.80;13.30;;;2.60;13.40;;;;;;5041675;28;20077;-79
2021/01/03 11:52:04;;;;;;;19.73;15.13;;;2.50;1.00;;;;;;5059233;28;20041;-79
2021/01/03 11:54:30;;;;;;;17.98;14.60;;;2.40;19.80;;;;;;5042235;28;20039;-79
2021/01/03 11:56:57;;;;;;;16.90;13.63;;;2.30;28.80;;;;;;5059219;28;20018;-79
2021/01/03 11:59:24;;;;;;;17.60;14.13;;;2.20;32.80;;;;;;5059887;28;20021;-77
2021/01/03 12:02:08;;;;;;;18.00;14.40;;;2.30;75.70;;;;;;5059731;28;20022;-81
2021/01/03 12:04:36;;;;;;;19.13;15.18;;;2.30;60.50;;;;;;5055656;28;20104;-78
2021/01/03 12:07:05;;;;;;;17.90;14.48;;;2.30;38.30;;;;;;5056105;28;20032;-78
2021/01/03 12:09:31;;;;;;;17.20;13.55;;;2.30;31.50;;;;;;5041704;28;20020;-79
2021/01/03 12:11:58;;;;;;;22.58;15.45;;;2.30;35.90;;;;;;5055529;28;20026;-79
2021/01/03 12:14:23;;;;;;;22.05;16.13;;;2.40;29.30;;;;;;5054700;28;20087;-79
2021/01/03 12:17:03;;;;;;;22.85;16.20;;;2.50;39.40;;;;;;5035018;28;20053;-79
2021/01/03 12:19:30;;;;;;;19.02;15.10;;;2.50;14.00;;;;;;5043562;28;20038;-78
2021/01/03 12:21:57;;;;;;;20.88;15.95;;;2.50;49.50;;;;;;5039899;28;20025;-78
2021/01/03 12:24:23;;;;;;;19.55;15.50;;;2.60;3.10;;;;;;5042589;28;20034;-79
2021/01/03 12:26:48;;;;;;;21.40;15.50;;;2.80;5.60;;;;;;5022941;28;20060;-79
2021/01/03 12:29:15;;;;;;;20.27;16.38;;;2.80;11.90;;;;;;5022565;28;20108;-78
2021/01/03 12:31:45;;;;;;;23.20;16.20;;;2.80;1.00;;;;;;5040168;28;20038;-79
2021/01/03 12:34:13;;;;;;;19.00;15.13;;;2.70;1.00;;;;;;5040858;28;20059;-78
2021/01/03 12:36:39;;;;;;;22.17;17.10;;;2.50;1.00;;;;;;5038917;28;20025;-79
2021/01/03 12:39:07;;;;;;;18.75;15.30;;;2.40;45.80;;;;;;5034189;28;20037;-80
2021/01/03 12:41:35;;;;;;;22.45;16.25;;;2.50;38.10;;;;;;5042360;28;21331;-80
2021/01/03 12:44:00;;;;;;;21.15;16.13;;;2.50;4.90;;;;;;5035928;28;20037;-78
2021/01/03 12:46:33;;;;;;;20.73;16.10;;;2.50;54.60;;;;;;5039833;28;20121;-79
2021/01/03 12:48:59;;;;;;;21.50;16.55;;;2.60;34.20;;;;;;5042898;28;20037;-79
2021/01/03 12:51:25;;;;;;;18.55;14.93;;;2.60;58.00;;;;;;5045676;28;20029;-78
2021/01/03 12:53:51;;;;;;;21.42;16.23;;;2.60;16.20;;;;;;5037687;28;20022;-79
2021/01/03 12:56:17;;;;;;;23.17;18.05;;;2.60;22.80;;;;;;5037778;28;20037;-79
2021/01/03 12:58:43;;;;;;;19.52;16.20;;;2.60;40.50;;;;;;5020391;28;20088;-80
2021/01/03 13:01:09;;;;;;;21.23;16.52;;;2.50;20.90;;;;;;5040689;28;20041;-79
2021/01/03 13:03:35;;;;;;;22.95;15.48;;;2.50;43.20;;;;;;5040335;28;20034;-80